Date,TemperatureHighF,TemperatureAvgF,TemperatureLowF,DewpointHighF,DewpointAvgF,DewpointLowF,HumidityHigh,HumidityAvg,HumidityLow,PressureMaxIn,PressureMinIn,WindSpeedMaxMPH,WindSpeedAvgMPH,GustSpeedMaxMPH,PrecipitationSumIn
2013-8-1,75.6,68.3,64.3,69.0,64.9,60.0,99,90,60,29.02,28.87,14,3,17,0.07
2013-8-2,75.5,66.3,57.5,68.0,61.5,56.0,99,87,56,29.02,28.89,24,3,24,1.08
2013-8-3,74.2,66.9,59.9,64.0,59.1,53.0,98,79,48,29.06,28.89,11,3,16,0.01
2013-8-4,71.5,63.8,55.9,61.0,55.8,48.0,98,77,49,29.15,28.99,13,3,17,0.00
2013-8-5,74.5,62.3,50.3,60.0,54.0,49.0,98,78,45,29.23,29.04,9,2,11,0.00
2013-8-6,80.6,66.6,54.9,63.0,57.4,52.0,98,76,42,29.20,29.04,7,2,9,0.00
2013-8-7,81.8,72.9,64.2,72.0,65.8,61.0,99,80,59,29.10,28.99,13,4,16,0.00
2013-8-8,82.8,73.4,66.1,73.0,69.5,65.0,99,89,72,29.14,28.98,11,2,14,0.54
2013-8-9,76.4,69.8,64.1,71.0,65.0,56.0,99,87,55,29.05,28.96,11,3,14,0.61
2013-8-10,71.3,65.1,56.0,63.0,56.7,49.0,98,77,47,29.22,29.01,12,3,14,0.00
2013-8-11,75.8,64.1,51.9,64.0,55.4,50.0,98,77,44,29.27,29.10,8,2,10,0.00
2013-8-12,75.9,67.7,57.5,66.0,61.2,57.0,98,82,57,29.19,28.94,11,2,15,0.00
2013-8-13,69.9,64.5,56.9,68.0,59.4,49.0,99,85,58,28.94,28.84,19,4,25,0.43
2013-8-14,68.3,60.2,53.9,57.0,52.6,47.0,97,78,48,29.15,28.88,21,4,21,0.02
2013-8-15,71.8,62.3,51.7,57.0,53.0,50.0,97,74,50,29.25,29.09,13,4,18,0.00
2013-8-16,77.4,64.4,52.7,63.0,56.2,52.0,98,78,45,29.32,29.12,9,2,11,0.00
2013-8-17,80.3,66.7,54.1,65.0,57.8,51.0,98,77,39,29.45,29.24,6,2,9,0.00
2013-8-18,81.8,68.0,55.9,66.0,59.7,54.0,98,78,42,29.40,29.17,6,1,8,0.00
2013-8-19,78.9,69.5,60.4,67.0,62.1,57.0,98,80,49,29.25,29.13,9,3,11,0.00
2013-8-20,81.6,71.3,61.9,67.0,63.5,60.0,99,79,53,29.30,29.13,12,4,15,0.00
2013-8-21,83.6,72.9,63.5,67.0,63.4,61.0,93,75,51,29.33,29.12,11,4,19,0.00
2013-8-22,81.3,72.7,63.9,72.0,65.8,57.0,92,80,63,29.13,29.06,14,4,19,0.00
2013-8-23,75.1,65.4,54.6,61.0,56.6,50.0,98,76,44,29.29,29.05,7,1,9,0.00
2013-8-24,76.8,63.0,49.3,61.0,53.8,48.0,98,76,42,29.51,29.22,8,2,11,0.00
2013-8-25,79.5,66.8,50.7,65.0,55.6,50.0,98,71,38,29.47,29.22,15,3,17,0.03
2013-8-26,77.7,70.8,66.6,72.0,68.3,62.0,99,93,77,29.24,29.04,17,6,21,0.53
2013-8-27,81.8,73.7,68.9,74.0,71.0,68.0,99,93,75,29.11,29.00,9,3,12,0.01
2013-8-28,82.3,73.9,67.3,75.0,70.7,66.0,99,91,70,29.07,28.97,9,1,10,0.06
2013-8-29,84.8,72.8,62.1,74.0,66.9,61.0,99,85,53,29.26,29.05,7,1,10,0.01
2013-8-30,81.2,72.7,64.6,72.0,67.5,64.0,99,85,59,29.13,28.88,12,3,15,0.00
2013-8-31,79.3,72.9,66.1,73.0,69.6,65.0,99,91,77,28.97,28.83,14,3,15,0.00